Time;durP1;ratioP1;P1;durP2;ratioP2;P2;SDS_P1;SDS_P2;PMS_P1;PMS_P2;Temp;Humidity;BMP_temperature;BMP_pressure;BME280_temperature;BME280_humidity;BME280_pressure;Samples;Min_cycle;Max_cycle;Signal;HPM_P1;HPM_P2
2020/12/02 00:00:28;;;;;;;8.43;4.40;;;6.50;99.90;;;;;;4985166;28;20274;-91
2020/12/02 00:03:01;;;;;;;7.27;4.17;;;6.50;99.90;;;;;;4984295;28;20235;-90
2020/12/02 00:05:29;;;;;;;6.13;5.47;;;6.50;99.90;;;;;;5000797;28;20285;-90
2020/12/02 00:08:34;;;;;;;6.87;4.50;;;6.50;99.90;;;;;;5002548;28;20269;-91
2020/12/02 00:11:03;;;;;;;7.80;4.83;;;6.40;99.90;;;;;;5001795;28;20214;-90
2020/12/02 00:13:33;;;;;;;6.03;4.03;;;6.40;99.90;;;;;;4984037;28;20564;-89
2020/12/02 00:16:00;;;;;;;8.57;5.43;;;6.40;99.90;;;;;;4983731;28;20223;-91
2020/12/02 00:18:26;;;;;;;8.50;6.33;;;6.50;99.90;;;;;;4999323;28;20266;-91
2020/12/02 00:20:52;;;;;;;6.10;4.57;;;6.50;99.90;;;;;;4983249;28;20265;-92
2020/12/02 00:23:18;;;;;;;9.03;5.57;;;6.50;99.90;;;;;;4983109;28;20313;-91
2020/12/02 00:25:44;;;;;;;5.87;3.90;;;6.50;99.90;;;;;;4982020;28;20215;-91
2020/12/02 00:28:13;;;;;;;8.33;6.00;;;6.60;99.90;;;;;;4931518;28;20247;-90
2020/12/02 00:30:39;;;;;;;12.03;6.23;;;6.60;99.90;;;;;;4980607;28;20220;-91
2020/12/02 00:33:25;;;;;;;11.00;4.77;;;6.50;99.90;;;;;;4935241;28;20731;-91
2020/12/02 00:35:52;;;;;;;11.33;6.80;;;6.50;99.90;;;;;;4971941;28;20231;-91
2020/12/02 00:38:19;;;;;;;6.80;5.07;;;6.60;99.90;;;;;;4987948;28;20194;-90
2020/12/02 00:40:46;;;;;;;6.23;4.50;;;6.60;99.90;;;;;;4971952;28;20530;-91
2020/12/02 00:43:19;;;;;;;8.23;4.63;;;6.50;99.90;;;;;;4971098;28;20231;-90
2020/12/02 00:45:45;;;;;;;7.57;5.53;;;6.50;99.90;;;;;;5004933;28;20227;-91
2020/12/02 00:48:17;;;;;;;4.10;3.70;;;6.50;99.90;;;;;;4970159;28;20269;-91
2020/12/02 00:50:43;;;;;;;7.13;4.73;;;6.50;99.90;;;;;;5003622;28;20231;-91
2020/12/02 00:53:12;;;;;;;18.73;5.80;;;6.50;99.90;;;;;;4956345;28;20202;-92
2020/12/02 00:55:39;;;;;;;6.77;4.47;;;6.50;99.90;;;;;;4986364;28;20238;-90
2020/12/02 00:58:11;;;;;;;7.40;3.70;;;6.50;99.90;;;;;;4985754;28;20234;-90
2020/12/02 01:00:39;;;;;;;7.57;5.30;;;6.40;99.90;;;;;;4999793;28;20219;-91
2020/12/02 01:03:16;;;;;;;7.17;5.17;;;6.40;99.90;;;;;;4981012;28;20227;-90
2020/12/02 01:05:45;;;;;;;7.10;5.47;;;6.40;99.90;;;;;;4980507;28;20239;-90
2020/12/02 01:08:25;;;;;;;9.27;4.23;;;6.40;99.90;;;;;;4998777;28;20191;-92
2020/12/02 01:11:04;;;;;;;8.50;5.30;;;6.40;99.90;;;;;;4964647;28;20232;-90
2020/12/02 01:13:34;;;;;;;6.10;5.10;;;6.40;99.90;;;;;;4962666;28;20212;-92
2020/12/02 01:16:04;;;;;;;7.30;4.57;;;6.40;99.90;;;;;;4976790;28;20332;-90
2020/12/02 01:18:31;;;;;;;12.80;5.50;;;6.40;99.90;;;;;;4997874;28;20212;-90
2020/12/02 01:21:05;;;;;;;8.93;4.50;;;6.40;99.90;;;;;;4982205;28;20778;-90
2020/12/02 01:23:35;;;;;;;11.80;7.10;;;6.30;99.90;;;;;;4983678;28;20226;-90
2020/12/02 01:26:02;;;;;;;6.60;5.00;;;6.30;99.90;;;;;;4986145;28;20188;-90
2020/12/02 01:28:31;;;;;;;6.67;5.30;;;6.30;99.90;;;;;;4985201;28;20306;-90
2020/12/02 01:30:58;;;;;;;10.27;6.57;;;6.30;99.90;;;;;;4966638;28;20224;-91
2020/12/02 01:33:23;;;;;;;7.90;7.07;;;6.30;99.90;;;;;;4960097;28;20285;-90
2020/12/02 01:35:50;;;;;;;8.07;5.20;;;6.30;99.90;;;;;;4985602;28;20310;-90
2020/12/02 01:38:22;;;;;;;7.00;5.17;;;6.30;99.90;;;;;;4987068;28;20648;-91
2020/12/02 01:40:50;;;;;;;12.50;6.30;;;6.20;99.90;;;;;;4986218;28;20219;-91
2020/12/02 01:43:16;;;;;;;8.53;5.87;;;6.30;99.90;;;;;;4985870;28;20230;-91
2020/12/02 01:45:58;;;;;;;4.73;3.77;;;6.30;99.90;;;;;;4953166;28;20436;-92
2020/12/02 01:48:49;;;;;;;8.33;5.87;;;6.30;99.90;;;;;;4985795;28;20222;-90
2020/12/02 01:51:34;;;;;;;8.53;6.17;;;6.30;99.90;;;;;;4986004;28;20211;-90
2020/12/02 01:54:11;;;;;;;7.03;4.67;;;6.30;99.90;;;;;;4986552;28;20751;-90
2020/12/02 01:57:01;;;;;;;7.63;5.10;;;6.30;99.90;;;;;;4986214;28;20241;-90
2020/12/02 02:00:02;;;;;;;7.00;4.37;;;6.30;99.90;;;;;;4985699;28;20205;-90
2020/12/02 02:02:36;;;;;;;7.87;5.83;;;6.20;99.90;;;;;;4942275;28;20602;-90
2020/12/02 02:05:12;;;;;;;8.30;4.43;;;6.20;99.90;;;;;;4995395;28;20229;-90
2020/12/02 02:07:38;;;;;;;8.10;5.27;;;6.20;99.90;;;;;;4985535;28;20265;-90
2020/12/02 02:10:31;;;;;;;5.93;4.23;;;6.20;99.90;;;;;;4985384;28;20266;-91
2020/12/02 02:13:28;;;;;;;13.77;8.30;;;6.10;99.90;;;;;;4967622;28;20220;-91
2020/12/02 02:16:36;;;;;;;12.33;5.20;;;6.10;99.90;;;;;;4966417;28;20227;-92
2020/12/02 02:19:02;;;;;;;8.07;6.20;;;6.10;99.90;;;;;;4966302;28;20706;-90
2020/12/02 02:21:32;;;;;;;12.53;5.27;;;6.20;99.90;;;;;;4944673;28;20216;-90
2020/12/02 02:23:58;;;;;;;9.20;6.57;;;6.10;99.90;;;;;;4966012;28;20220;-91
2020/12/02 02:26:33;;;;;;;12.00;6.10;;;6.10;99.90;;;;;;4983060;28;20700;-91
2020/12/02 02:29:09;;;;;;;12.83;6.77;;;6.10;99.90;;;;;;4967563;28;20179;-91
2020/12/02 02:32:04;;;;;;;12.33;5.97;;;6.10;99.90;;;;;;4982654;28;20230;-91
2020/12/02 02:34:31;;;;;;;8.70;6.50;;;6.20;99.90;;;;;;4962537;28;20216;-91
2020/12/02 02:36:58;;;;;;;7.93;6.13;;;6.10;99.90;;;;;;4979226;28;20334;-90
2020/12/02 02:39:24;;;;;;;5.60;4.90;;;6.20;99.90;;;;;;4952997;28;20211;-91
2020/12/02 02:42:21;;;;;;;11.20;7.03;;;6.20;99.90;;;;;;4984839;28;21127;-91
2020/12/02 02:44:47;;;;;;;15.63;5.57;;;6.20;99.90;;;;;;4983542;28;20223;-91
2020/12/02 02:47:13;;;;;;;13.47;7.43;;;6.20;99.90;;;;;;4954464;28;20257;-90
2020/12/02 02:49:39;;;;;;;9.83;6.10;;;6.20;99.90;;;;;;4933669;28;20224;-91
2020/12/02 02:52:04;;;;;;;10.13;6.17;;;6.20;99.90;;;;;;4979193;28;20231;-92
2020/12/02 02:54:30;;;;;;;8.53;5.83;;;6.20;99.90;;;;;;5002281;28;20238;-92
2020/12/02 02:56:56;;;;;;;11.07;6.37;;;6.10;99.90;;;;;;4975253;28;20223;-92
2020/12/02 02:59:22;;;;;;;16.33;6.73;;;6.10;99.90;;;;;;4990754;28;20198;-91
2020/12/02 03:01:48;;;;;;;12.30;6.57;;;6.10;99.90;;;;;;4947524;28;20216;-90
2020/12/02 03:04:14;;;;;;;11.70;6.03;;;6.00;99.90;;;;;;4948216;28;20515;-91
2020/12/02 03:06:40;;;;;;;8.40;5.27;;;6.00;99.90;;;;;;4968153;28;20224;-91
2020/12/02 03:09:09;;;;;;;13.03;6.83;;;6.00;99.90;;;;;;4956478;28;20601;-90
2020/12/02 03:11:35;;;;;;;10.53;7.00;;;6.00;99.90;;;;;;4983365;28;20191;-91
2020/12/02 03:14:02;;;;;;;8.90;4.90;;;6.00;99.90;;;;;;4984043;28;20194;-92
2020/12/02 03:16:36;;;;;;;8.03;4.73;;;6.00;99.90;;;;;;4970471;28;20224;-90
2020/12/02 03:19:12;;;;;;;7.33;5.60;;;6.00;99.90;;;;;;4978523;28;20223;-91
2020/12/02 03:21:38;;;;;;;11.93;6.73;;;5.90;99.90;;;;;;4977545;28;20213;-92
2020/12/02 03:24:05;;;;;;;8.60;5.57;;;5.90;99.90;;;;;;4980998;28;20324;-91
2020/12/02 03:26:32;;;;;;;7.80;5.57;;;5.90;99.90;;;;;;4981553;28;20192;-89
2020/12/02 03:28:58;;;;;;;11.10;6.10;;;5.80;99.90;;;;;;4983851;28;20198;-91
2020/12/02 03:31:24;;;;;;;9.30;5.43;;;5.80;99.90;;;;;;4948082;28;20697;-90
2020/12/02 03:33:50;;;;;;;8.47;5.57;;;5.80;99.90;;;;;;4948731;28;20228;-91
2020/12/02 03:36:18;;;;;;;10.53;5.60;;;5.80;99.90;;;;;;4964817;28;20212;-91
2020/12/02 03:38:45;;;;;;;11.60;5.80;;;5.80;99.90;;;;;;4983950;28;20224;-90
2020/12/02 03:41:12;;;;;;;10.77;6.53;;;5.80;99.90;;;;;;4985488;28;20239;-89
2020/12/02 03:43:38;;;;;;;10.10;7.27;;;5.80;99.90;;;;;;4980607;28;20239;-91
2020/12/02 03:46:04;;;;;;;6.53;5.13;;;5.80;99.90;;;;;;4980728;28;20216;-91
2020/12/02 03:48:30;;;;;;;12.07;6.67;;;5.70;99.90;;;;;;4979579;28;20227;-91
2020/12/02 03:50:56;;;;;;;9.30;5.03;;;5.80;99.90;;;;;;4965174;28;20228;-90
2020/12/02 03:53:22;;;;;;;6.73;5.17;;;5.80;99.90;;;;;;4964762;28;20599;-91
2020/12/02 03:55:48;;;;;;;5.57;4.97;;;5.80;99.90;;;;;;4966340;28;20191;-91
2020/12/02 03:58:14;;;;;;;10.77;4.93;;;5.80;99.90;;;;;;4965216;28;20219;-90
2020/12/02 04:00:40;;;;;;;12.47;7.33;;;5.80;99.90;;;;;;4992197;28;20377;-90
2020/12/02 04:03:07;;;;;;;12.17;5.80;;;5.80;99.90;;;;;;4999582;28;20231;-90
2020/12/02 04:05:33;;;;;;;10.27;5.20;;;5.80;99.90;;;;;;4981094;28;20806;-91
2020/12/02 04:07:59;;;;;;;7.13;5.97;;;5.90;99.90;;;;;;4981796;28;20207;-90
2020/12/02 04:10:25;;;;;;;9.70;5.80;;;5.90;99.90;;;;;;4979247;28;20219;-89
2020/12/02 04:12:51;;;;;;;11.97;5.80;;;5.80;99.90;;;;;;4964589;28;20228;-91
2020/12/02 04:15:19;;;;;;;16.03;6.40;;;5.80;99.90;;;;;;4980297;28;20219;-91
2020/12/02 04:17:46;;;;;;;9.20;6.30;;;5.90;99.90;;;;;;4978747;28;20211;-89
2020/12/02 04:20:11;;;;;;;7.23;5.63;;;5.90;99.90;;;;;;4981486;28;20203;-91
2020/12/02 04:22:38;;;;;;;14.13;6.77;;;5.90;99.90;;;;;;4947790;28;20231;-91
2020/12/02 04:25:05;;;;;;;8.13;6.07;;;5.90;99.90;;;;;;4994867;28;20688;-90
2020/12/02 04:27:32;;;;;;;9.73;6.83;;;5.90;99.90;;;;;;4999742;28;20215;-90
2020/12/02 04:29:58;;;;;;;10.17;6.40;;;5.90;99.90;;;;;;5001286;28;20234;-90
2020/12/02 04:32:23;;;;;;;11.93;5.60;;;5.90;99.90;;;;;;4968233;28;20191;-90
2020/12/02 04:34:49;;;;;;;14.13;6.63;;;5.80;99.90;;;;;;4984624;28;20191;-90
2020/12/02 04:37:15;;;;;;;8.00;5.87;;;5.80;99.90;;;;;;4984044;28;20211;-91
2020/12/02 04:39:42;;;;;;;7.33;5.53;;;5.80;99.90;;;;;;4984197;28;20301;-89
2020/12/02 04:42:09;;;;;;;12.87;4.90;;;5.80;99.90;;;;;;4983067;28;20242;-90
2020/12/02 04:44:35;;;;;;;15.63;7.37;;;5.80;99.90;;;;;;4999522;28;20207;-91
2020/12/02 04:47:02;;;;;;;14.27;6.90;;;5.80;99.90;;;;;;4985029;28;20188;-89
2020/12/02 04:49:33;;;;;;;13.43;6.17;;;5.70;99.90;;;;;;4999033;28;20922;-90
2020/12/02 04:52:17;;;;;;;11.23;6.47;;;5.80;99.90;;;;;;4985584;28;20235;-90
2020/12/02 04:54:43;;;;;;;15.27;7.53;;;5.80;99.90;;;;;;4979822;28;20223;-90
2020/12/02 04:57:09;;;;;;;12.23;7.43;;;5.70;99.90;;;;;;4948102;28;20257;-91
2020/12/02 04:59:37;;;;;;;11.00;6.53;;;5.80;99.90;;;;;;4982246;28;20220;-92
2020/12/02 05:02:03;;;;;;;11.43;6.13;;;5.80;99.90;;;;;;5002426;28;21149;-89
2020/12/02 05:04:29;;;;;;;12.93;7.83;;;5.80;99.90;;;;;;5000379;28;20231;-91
2020/12/02 05:07:04;;;;;;;12.43;7.10;;;5.80;99.90;;;;;;4987190;28;20267;-90
2020/12/02 05:09:33;;;;;;;9.17;6.63;;;5.80;99.90;;;;;;4981018;28;20323;-90
2020/12/02 05:12:03;;;;;;;9.73;6.70;;;5.80;99.90;;;;;;4985780;28;20341;-90
2020/12/02 05:14:36;;;;;;;20.07;8.43;;;5.80;99.90;;;;;;5000051;28;20207;-89
2020/12/02 05:17:05;;;;;;;10.33;6.80;;;5.80;99.90;;;;;;4999641;28;20191;-92
2020/12/02 05:19:30;;;;;;;14.17;7.20;;;5.80;99.90;;;;;;4998886;28;20269;-91
2020/12/02 05:22:05;;;;;;;13.17;7.10;;;5.70;99.90;;;;;;4987404;28;20803;-90
2020/12/02 05:24:48;;;;;;;15.30;8.27;;;5.70;99.90;;;;;;4998200;28;20224;-91
2020/12/02 05:27:27;;;;;;;13.67;6.93;;;5.60;99.90;;;;;;5001931;28;20645;-91
2020/12/02 05:30:04;;;;;;;16.33;7.27;;;5.60;99.90;;;;;;4998888;28;20216;-91
2020/12/02 05:32:30;;;;;;;13.43;8.37;;;5.60;99.90;;;;;;4981876;28;20242;-91
2020/12/02 05:34:56;;;;;;;8.70;6.80;;;5.60;99.90;;;;;;4951965;28;20558;-90
2020/12/02 05:37:40;;;;;;;24.17;8.53;;;5.60;99.90;;;;;;4966226;28;20211;-90
2020/12/02 05:40:14;;;;;;;13.00;6.37;;;5.60;99.90;;;;;;4998777;28;20277;-89
2020/12/02 05:42:51;;;;;;;13.93;6.37;;;5.60;99.90;;;;;;4982126;28;20234;-89
2020/12/02 05:45:35;;;;;;;9.07;6.60;;;5.60;99.90;;;;;;4979277;28;20772;-91
2020/12/02 05:48:04;;;;;;;10.93;7.40;;;5.60;99.90;;;;;;4977326;28;20211;-90
2020/12/02 05:50:30;;;;;;;22.00;8.83;;;5.50;99.90;;;;;;4977973;28;20190;-91
2020/12/02 05:53:16;;;;;;;16.23;8.37;;;5.60;99.90;;;;;;4962185;28;20196;-90
2020/12/02 05:55:42;;;;;;;12.13;7.30;;;5.60;99.90;;;;;;4997943;28;20543;-90
2020/12/02 05:58:08;;;;;;;12.40;6.57;;;5.50;99.90;;;;;;4961825;28;20223;-90
2020/12/02 06:00:34;;;;;;;10.73;7.13;;;5.50;99.90;;;;;;4993333;28;20286;-90
2020/12/02 06:03:01;;;;;;;12.00;6.97;;;5.50;99.90;;;;;;4978129;28;20323;-90
2020/12/02 06:05:28;;;;;;;17.33;6.73;;;5.50;99.90;;;;;;4980902;28;20319;-88
2020/12/02 06:07:58;;;;;;;12.00;6.07;;;5.50;99.90;;;;;;4990854;28;20199;-90
2020/12/02 06:10:44;;;;;;;15.07;7.63;;;5.50;99.90;;;;;;4997589;28;20291;-92
2020/12/02 06:13:37;;;;;;;14.20;7.80;;;5.50;99.90;;;;;;4994129;28;20728;-92
2020/12/02 06:16:02;;;;;;;14.60;7.97;;;5.50;99.90;;;;;;5002936;28;20277;-88
2020/12/02 06:18:32;;;;;;;12.97;7.50;;;5.50;99.90;;;;;;4999960;28;20226;-90
2020/12/02 06:20:59;;;;;;;8.60;7.33;;;5.50;99.90;;;;;;5001284;28;20227;-90
2020/12/02 06:23:49;;;;;;;17.27;7.07;;;5.50;99.90;;;;;;5000014;28;20286;-90
2020/12/02 06:26:49;;;;;;;8.10;7.10;;;5.50;99.90;;;;;;5001308;28;20197;-90
2020/12/02 06:29:43;;;;;;;9.77;5.70;;;5.50;99.90;;;;;;4988195;28;20239;-90
2020/12/02 06:32:16;;;;;;;10.27;6.77;;;5.50;99.90;;;;;;4982187;28;20413;-90
2020/12/02 06:34:42;;;;;;;13.27;6.50;;;5.50;99.90;;;;;;4982419;28;20334;-90
2020/12/02 06:37:18;;;;;;;9.63;7.17;;;5.50;99.90;;;;;;4982481;28;20285;-90
2020/12/02 06:39:54;;;;;;;10.87;6.07;;;5.50;99.90;;;;;;4982016;28;21307;-88
2020/12/02 06:42:41;;;;;;;14.80;7.53;;;5.50;99.90;;;;;;4981506;28;20224;-88
2020/12/02 06:45:16;;;;;;;13.63;8.13;;;5.50;99.90;;;;;;4988893;28;20226;-93
2020/12/02 06:47:55;;;;;;;12.03;7.37;;;5.50;99.90;;;;;;4998338;28;20273;-91
2020/12/02 06:50:25;;;;;;;12.47;6.77;;;5.50;99.90;;;;;;4981268;28;20719;-91
2020/12/02 06:52:51;;;;;;;16.10;5.37;;;5.50;99.90;;;;;;4984565;28;20638;-92
2020/12/02 06:55:24;;;;;;;13.87;6.27;;;5.50;99.90;;;;;;4998486;28;20250;-92
2020/12/02 06:58:17;;;;;;;9.80;4.90;;;5.60;99.90;;;;;;4981204;28;20250;-92
2020/12/02 07:00:56;;;;;;;8.87;5.93;;;5.50;99.90;;;;;;4974685;28;20311;-92
2020/12/02 07:03:33;;;;;;;9.57;5.63;;;5.50;99.90;;;;;;4978523;28;20235;-93
2020/12/02 07:06:23;;;;;;;14.07;6.23;;;5.50;99.90;;;;;;5002277;28;20282;-91
2020/12/02 07:09:21;;;;;;;13.63;6.07;;;5.50;99.90;;;;;;4996860;28;20239;-93
2020/12/02 07:11:59;;;;;;;10.30;4.97;;;5.40;99.90;;;;;;4943666;28;20282;-93
2020/12/02 07:14:37;;;;;;;7.67;5.43;;;5.50;99.90;;;;;;4981574;28;20184;-92
2020/12/02 07:17:07;;;;;;;11.40;5.40;;;5.40;99.90;;;;;;4981211;28;20222;-92
2020/12/02 07:19:37;;;;;;;8.07;5.60;;;5.50;99.90;;;;;;4982254;28;20260;-90
2020/12/02 07:22:13;;;;;;;8.87;4.23;;;5.50;99.90;;;;;;4982036;28;20237;-91
2020/12/02 07:24:48;;;;;;;14.77;5.63;;;5.40;99.90;;;;;;4981036;28;20211;-92
2020/12/02 07:27:16;;;;;;;16.13;6.00;;;5.50;99.90;;;;;;4981439;28;20227;-93
2020/12/02 07:29:44;;;;;;;7.80;6.20;;;5.40;99.90;;;;;;4976716;28;20226;-92
2020/12/02 07:32:25;;;;;;;8.00;5.63;;;5.40;99.90;;;;;;5002359;28;20238;-94
2020/12/02 07:35:03;;;;;;;13.70;6.40;;;5.40;99.90;;;;;;4972168;28;21167;-92
2020/12/02 07:37:29;;;;;;;11.20;5.10;;;5.40;99.90;;;;;;5000385;28;20257;-92
2020/12/02 07:39:58;;;;;;;9.43;4.80;;;5.40;99.90;;;;;;5016809;28;20219;-92
2020/12/02 07:42:38;;;;;;;6.67;4.83;;;5.40;99.90;;;;;;4990096;28;21092;-92
2020/12/02 07:45:22;;;;;;;13.17;5.07;;;5.40;99.90;;;;;;4980415;28;20220;-93
2020/12/02 07:48:04;;;;;;;8.57;6.03;;;5.40;99.90;;;;;;4980768;28;20787;-93
2020/12/02 07:50:43;;;;;;;7.57;4.43;;;5.40;99.90;;;;;;4980272;28;20196;-93
2020/12/02 07:53:30;;;;;;;7.90;6.27;;;5.40;99.90;;;;;;4984239;28;20200;-94
2020/12/02 07:55:57;;;;;;;11.47;5.37;;;5.40;99.90;;;;;;4980739;28;20238;-94
2020/12/02 07:58:36;;;;;;;12.67;7.37;;;5.40;99.90;;;;;;4980084;28;20239;-92
2020/12/02 08:01:32;;;;;;;15.60;7.30;;;5.40;99.90;;;;;;4996014;28;20226;-94
2020/12/02 08:04:21;;;;;;;16.87;7.53;;;5.40;99.90;;;;;;4987894;28;20270;-92
2020/12/02 08:07:06;;;;;;;12.73;7.27;;;5.40;99.90;;;;;;4958176;28;20286;-91
2020/12/02 08:09:46;;;;;;;10.50;5.97;;;5.40;99.90;;;;;;4946539;28;20290;-92
2020/12/02 08:12:24;;;;;;;10.33;6.33;;;5.50;99.90;;;;;;4950097;28;20278;-94
2020/12/02 08:15:09;;;;;;;12.57;6.40;;;5.50;99.90;;;;;;4960855;28;20232;-91
2020/12/02 08:17:38;;;;;;;7.60;5.97;;;5.40;99.90;;;;;;4936347;28;20181;-92
2020/12/02 08:20:32;;;;;;;9.53;7.17;;;5.50;99.90;;;;;;4943121;28;20197;-92
2020/12/02 08:23:05;;;;;;;10.17;6.40;;;5.50;99.90;;;;;;4960100;28;20261;-94
2020/12/02 08:25:43;;;;;;;9.70;5.97;;;5.50;99.90;;;;;;4931610;28;20232;-92
2020/12/02 08:28:14;;;;;;;10.63;5.70;;;5.50;99.90;;;;;;4944358;28;20228;-91
2020/12/02 08:30:40;;;;;;;8.87;6.77;;;5.50;99.90;;;;;;4925014;28;20220;-92
2020/12/02 08:33:14;;;;;;;10.03;6.27;;;5.50;99.90;;;;;;4964484;28;20576;-93
2020/12/02 08:35:49;;;;;;;14.37;6.77;;;5.50;99.90;;;;;;4963759;28;20219;-92
2020/12/02 08:38:30;;;;;;;7.93;4.77;;;5.50;99.90;;;;;;4965563;28;20188;-93
2020/12/02 08:40:58;;;;;;;8.90;4.93;;;5.50;99.90;;;;;;4963293;28;20286;-92
2020/12/02 08:43:48;;;;;;;15.07;5.77;;;5.50;99.90;;;;;;4958187;28;20294;-94
2020/12/02 08:46:24;;;;;;;12.23;6.37;;;5.50;99.90;;;;;;4971757;28;20231;-94
2020/12/02 08:48:55;;;;;;;10.00;5.83;;;5.50;99.90;;;;;;4973114;28;20242;-93
2020/12/02 08:51:24;;;;;;;8.00;5.40;;;5.50;99.90;;;;;;4963237;28;20262;-93
2020/12/02 08:53:50;;;;;;;10.20;6.17;;;5.50;99.90;;;;;;4977222;28;20220;-93
2020/12/02 08:56:35;;;;;;;7.97;6.47;;;5.60;99.90;;;;;;4984840;28;20192;-94
2020/12/02 08:59:09;;;;;;;12.47;6.43;;;5.60;99.90;;;;;;4957202;28;20310;-93
2020/12/02 09:01:39;;;;;;;12.73;6.20;;;5.50;99.90;;;;;;4958057;28;20294;-94
2020/12/02 09:04:05;;;;;;;7.10;6.33;;;5.60;99.90;;;;;;4966948;28;20223;-93
2020/12/02 09:06:34;;;;;;;5.43;4.77;;;5.50;99.90;;;;;;4985886;28;21232;-94
2020/12/02 09:09:00;;;;;;;14.77;6.47;;;5.60;99.90;;;;;;4993823;28;20588;-95
2020/12/02 09:11:32;;;;;;;8.60;7.70;;;5.60;99.90;;;;;;4983275;28;20188;-93
2020/12/02 09:14:00;;;;;;;8.33;6.37;;;5.50;99.90;;;;;;5000850;28;20900;-94
2020/12/02 09:16:31;;;;;;;9.73;5.83;;;5.50;99.90;;;;;;4997442;28;20216;-94
2020/12/02 09:19:00;;;;;;;11.67;7.03;;;5.60;99.90;;;;;;4979576;28;20232;-94
2020/12/02 09:21:32;;;;;;;5.80;4.03;;;5.60;99.90;;;;;;4960188;28;20228;-94
2020/12/02 09:23:59;;;;;;;7.93;5.37;;;5.60;99.90;;;;;;4982214;28;20778;-92
2020/12/02 09:26:29;;;;;;;11.50;4.13;;;5.50;99.90;;;;;;4982552;28;20230;-92
2020/12/02 09:29:01;;;;;;;11.43;6.53;;;5.60;99.90;;;;;;4985183;28;20203;-93
2020/12/02 09:31:32;;;;;;;10.23;6.50;;;5.60;99.90;;;;;;4976283;28;20227;-94
2020/12/02 09:33:59;;;;;;;8.60;6.10;;;5.60;99.90;;;;;;5008998;28;20720;-94
2020/12/02 09:36:29;;;;;;;16.90;6.67;;;5.60;99.90;;;;;;4976298;28;20278;-95
2020/12/02 09:38:58;;;;;;;21.50;7.33;;;5.60;99.90;;;;;;4955710;28;20231;-93
2020/12/02 09:41:40;;;;;;;11.33;5.23;;;5.70;99.90;;;;;;4978695;28;20212;-95
2020/12/02 09:44:34;;;;;;;11.13;5.37;;;5.70;99.90;;;;;;4985029;28;20206;-93
2020/12/02 09:47:06;;;;;;;13.40;6.70;;;5.70;99.90;;;;;;5000383;28;20227;-94
2020/12/02 09:49:41;;;;;;;17.47;4.93;;;5.70;99.90;;;;;;4992058;28;20222;-96
2020/12/02 09:52:12;;;;;;;7.33;5.70;;;5.70;99.90;;;;;;4989403;28;20596;-93
2020/12/02 09:54:45;;;;;;;10.57;6.17;;;5.70;99.90;;;;;;4978653;28;20224;-95
2020/12/02 09:57:23;;;;;;;8.07;4.83;;;5.70;99.90;;;;;;4956716;28;20595;-94
2020/12/02 09:59:57;;;;;;;10.17;6.50;;;5.70;99.90;;;;;;4997575;28;20705;-93
2020/12/02 10:02:46;;;;;;;6.53;5.37;;;5.80;99.90;;;;;;4980755;28;20242;-95
2020/12/02 10:05:55;;;;;;;10.60;6.27;;;5.80;99.90;;;;;;4984986;28;20282;-95
2020/12/02 10:08:24;;;;;;;9.07;6.37;;;5.80;99.90;;;;;;5005028;28;20219;-93
2020/12/02 10:11:02;;;;;;;9.20;5.40;;;5.80;99.90;;;;;;4967351;28;20220;-94
2020/12/02 10:13:50;;;;;;;11.40;5.60;;;5.80;99.90;;;;;;4996477;28;20297;-93
2020/12/02 10:16:30;;;;;;;6.10;5.50;;;5.80;99.90;;;;;;4988488;28;20215;-93
2020/12/02 10:19:17;;;;;;;11.07;5.57;;;5.80;99.90;;;;;;4992748;28;20211;-94
2020/12/02 10:22:04;;;;;;;4.90;4.20;;;5.80;99.90;;;;;;5001225;28;20211;-93
2020/12/02 10:24:56;;;;;;;9.50;6.63;;;5.80;99.90;;;;;;4970756;28;20230;-93
2020/12/02 10:27:30;;;;;;;14.47;5.83;;;5.70;99.90;;;;;;4970520;28;20226;-93
2020/12/02 10:30:23;;;;;;;10.50;5.73;;;5.80;99.90;;;;;;4982435;28;20229;-94
2020/12/02 10:33:07;;;;;;;8.93;4.57;;;5.90;99.90;;;;;;4997288;28;20711;-95
2020/12/02 10:35:40;;;;;;;7.57;5.20;;;5.90;99.90;;;;;;4987370;28;20187;-94
2020/12/02 10:38:23;;;;;;;15.30;6.30;;;5.90;99.90;;;;;;4990618;28;20245;-95
2020/12/02 10:40:55;;;;;;;8.43;5.20;;;5.90;99.90;;;;;;4996110;28;20808;-95
2020/12/02 10:43:39;;;;;;;10.13;5.33;;;5.80;99.90;;;;;;4979518;28;20231;-93
2020/12/02 10:46:10;;;;;;;9.60;5.87;;;5.80;99.90;;;;;;4967603;28;20939;-93
2020/12/02 10:49:14;;;;;;;7.73;4.63;;;5.80;99.90;;;;;;4981478;28;20223;-94
2020/12/02 10:51:40;;;;;;;25.27;7.03;;;5.90;99.90;;;;;;5004491;28;20211;-94
2020/12/02 10:54:14;;;;;;;7.57;5.50;;;5.90;99.90;;;;;;4987922;28;20216;-93
2020/12/02 10:56:42;;;;;;;14.57;6.57;;;5.90;99.90;;;;;;4983700;28;20223;-93
2020/12/02 10:59:12;;;;;;;10.90;6.97;;;5.90;99.90;;;;;;4997050;28;20220;-93
2020/12/02 11:01:42;;;;;;;8.17;5.13;;;5.90;99.90;;;;;;4980890;28;20231;-92
2020/12/02 11:04:13;;;;;;;9.70;5.20;;;5.90;99.90;;;;;;5012499;28;20211;-94
2020/12/02 11:06:45;;;;;;;12.00;5.60;;;5.90;99.90;;;;;;5001816;28;20631;-93
2020/12/02 11:09:46;;;;;;;8.67;6.07;;;5.90;99.90;;;;;;5002609;28;20233;-94
2020/12/02 11:12:44;;;;;;;9.97;6.80;;;5.90;99.90;;;;;;5001178;28;20218;-93
2020/12/02 11:15:45;;;;;;;9.63;6.17;;;6.00;99.90;;;;;;5011754;28;20215;-90
2020/12/02 11:18:30;;;;;;;17.53;5.27;;;6.00;99.90;;;;;;4999815;28;20219;-90
2020/12/02 11:21:21;;;;;;;6.93;4.83;;;6.00;99.90;;;;;;4995326;28;20623;-91
2020/12/02 11:23:56;;;;;;;6.10;4.43;;;6.00;99.90;;;;;;4982770;28;20813;-89
2020/12/02 11:26:26;;;;;;;9.07;4.13;;;6.00;99.90;;;;;;4988862;28;20218;-89
2020/12/02 11:28:54;;;;;;;9.60;6.60;;;6.00;99.90;;;;;;5001605;28;20187;-92
2020/12/02 11:31:38;;;;;;;9.07;5.20;;;5.90;99.90;;;;;;4984117;28;21006;-93
2020/12/02 11:34:07;;;;;;;6.67;5.67;;;6.00;99.90;;;;;;4986179;28;20310;-92
2020/12/02 11:36:33;;;;;;;11.63;5.47;;;5.90;99.90;;;;;;4980185;28;20219;-90
2020/12/02 11:39:23;;;;;;;11.07;6.00;;;5.90;99.90;;;;;;4974703;28;20260;-93
2020/12/02 11:42:01;;;;;;;5.97;5.37;;;6.00;99.90;;;;;;4995473;28;20231;-91
2020/12/02 11:44:37;;;;;;;10.73;6.67;;;6.00;99.90;;;;;;4983167;28;20196;-95
2020/12/02 11:47:34;;;;;;;11.13;3.93;;;6.00;99.90;;;;;;5001518;28;20241;-94
2020/12/02 11:50:14;;;;;;;8.13;5.63;;;6.00;99.90;;;;;;5000718;28;20207;-93
2020/12/02 11:52:51;;;;;;;5.83;3.97;;;6.10;99.90;;;;;;5000186;28;20234;-93
2020/12/02 11:55:19;;;;;;;9.13;5.30;;;6.10;99.90;;;;;;4983954;28;20224;-93
2020/12/02 11:57:58;;;;;;;13.37;5.87;;;6.10;99.90;;;;;;4979258;28;21343;-94
2020/12/02 12:00:24;;;;;;;7.90;5.47;;;6.10;99.90;;;;;;4974027;28;20755;-91
2020/12/02 12:03:11;;;;;;;8.73;5.90;;;6.10;99.90;;;;;;4999741;28;20238;-91
2020/12/02 12:05:46;;;;;;;16.93;5.80;;;6.20;99.90;;;;;;4998534;28;20793;-91
2020/12/02 12:08:23;;;;;;;10.33;5.27;;;6.20;99.90;;;;;;5001405;28;20280;-92
2020/12/02 12:10:59;;;;;;;13.07;6.73;;;6.10;99.90;;;;;;5001424;28;20454;-90
2020/12/02 12:13:34;;;;;;;13.57;8.03;;;6.10;99.90;;;;;;4996864;28;20257;-95
2020/12/02 12:16:22;;;;;;;9.93;6.03;;;6.20;99.90;;;;;;4986357;28;20263;-94
2020/12/02 12:18:50;;;;;;;18.23;9.17;;;6.10;99.90;;;;;;5000867;28;20220;-92
2020/12/02 12:21:48;;;;;;;34.73;20.33;;;6.20;99.90;;;;;;4988185;28;20215;-92
2020/12/02 12:24:16;;;;;;;10.60;5.50;;;6.20;99.90;;;;;;4969666;28;20341;-92
2020/12/02 12:26:49;;;;;;;9.90;5.30;;;6.20;99.90;;;;;;4977312;28;20329;-92
2020/12/02 12:29:15;;;;;;;18.00;6.50;;;6.10;99.90;;;;;;5001971;28;20187;-93
2020/12/02 12:31:52;;;;;;;8.93;5.97;;;6.10;99.90;;;;;;4987859;28;20226;-92
2020/12/02 12:34:35;;;;;;;14.83;6.93;;;6.10;99.90;;;;;;4996932;28;21121;-92
2020/12/02 12:37:06;;;;;;;12.50;5.03;;;6.10;99.90;;;;;;4997071;28;20215;-92
2020/12/02 12:39:54;;;;;;;13.37;4.53;;;6.10;99.90;;;;;;4994032;28;20242;-93
2020/12/02 12:42:22;;;;;;;9.63;4.57;;;6.00;99.90;;;;;;5004311;28;20222;-93
2020/12/02 12:44:49;;;;;;;15.67;6.50;;;5.90;99.90;;;;;;5004134;28;20254;-92
2020/12/02 12:47:23;;;;;;;8.70;5.87;;;6.00;99.90;;;;;;4989601;28;20191;-94
2020/12/02 12:49:52;;;;;;;13.13;6.10;;;6.00;99.90;;;;;;5003855;28;20687;-93
2020/12/02 12:52:30;;;;;;;10.67;6.40;;;6.00;99.90;;;;;;5020030;28;20215;-93
2020/12/02 12:54:56;;;;;;;12.17;6.20;;;6.00;99.90;;;;;;4989745;28;20219;-92
2020/12/02 12:57:27;;;;;;;8.23;5.53;;;6.10;99.90;;;;;;4983668;28;20208;-91
2020/12/02 12:59:55;;;;;;;9.97;6.67;;;6.10;99.90;;;;;;4983495;28;20768;-93
2020/12/02 13:02:27;;;;;;;6.87;4.37;;;6.10;99.90;;;;;;5000490;28;20262;-91
2020/12/02 13:04:55;;;;;;;12.57;4.43;;;6.00;99.90;;;;;;4983523;28;20966;-92
2020/12/02 13:07:38;;;;;;;7.83;4.57;;;6.00;99.90;;;;;;5001432;28;20233;-90
2020/12/02 13:10:39;;;;;;;19.57;4.73;;;6.00;99.90;;;;;;5000397;28;20251;-92
2020/12/02 13:13:20;;;;;;;8.27;5.20;;;5.90;99.90;;;;;;4984023;28;20219;-91
2020/12/02 13:15:52;;;;;;;14.73;6.30;;;6.00;99.90;;;;;;4984011;28;20224;-91
2020/12/02 13:18:43;;;;;;;7.77;4.80;;;6.00;99.90;;;;;;4990665;28;20242;-93
2020/12/02 13:21:29;;;;;;;9.50;4.60;;;6.10;99.90;;;;;;4996454;28;20398;-91
2020/12/02 13:24:27;;;;;;;16.47;7.27;;;6.00;99.90;;;;;;4983308;28;20243;-93
2020/12/02 13:27:38;;;;;;;10.57;5.30;;;6.00;99.90;;;;;;4968026;28;20239;-91
2020/12/02 13:30:21;;;;;;;11.37;5.93;;;5.90;99.90;;;;;;4984370;28;21332;-91